sensor_id;sensor_type;location;lat;lon;timestamp;P1;durP1;ratioP1;P2;durP2;ratioP2
39308;SDS011;26019;47.510;19.122;2022-09-13T00:03:32;10.60;;;5.53;;
39308;SDS011;26019;47.510;19.122;2022-09-13T00:13:34;10.00;;;6.05;;
39308;SDS011;26019;47.510;19.122;2022-09-13T00:23:35;10.20;;;6.50;;
39308;SDS011;26019;47.510;19.122;2022-09-13T00:33:37;8.38;;;5.53;;
39308;SDS011;26019;47.510;19.122;2022-09-13T00:43:46;8.73;;;5.95;;
39308;SDS011;26019;47.510;19.122;2022-09-13T00:53:56;7.40;;;5.10;;
39308;SDS011;26019;47.510;19.122;2022-09-13T01:04:01;9.35;;;5.65;;
39308;SDS011;26019;47.510;19.122;2022-09-13T01:14:04;6.53;;;5.07;;
39308;SDS011;26019;47.510;19.122;2022-09-13T01:34:22;8.85;;;5.50;;
39308;SDS011;26019;47.510;19.122;2022-09-13T01:54:52;8.38;;;5.63;;
39308;SDS011;26019;47.510;19.122;2022-09-13T02:05:00;7.47;;;6.20;;
39308;SDS011;26019;47.510;19.122;2022-09-13T02:15:17;8.60;;;6.93;;
39308;SDS011;26019;47.510;19.122;2022-09-13T02:25:26;11.98;;;7.03;;
39308;SDS011;26019;47.510;19.122;2022-09-13T02:35:35;9.85;;;6.75;;
39308;SDS011;26019;47.510;19.122;2022-09-13T02:45:48;8.23;;;6.65;;
39308;SDS011;26019;47.510;19.122;2022-09-13T03:06:26;7.68;;;6.20;;
39308;SDS011;26019;47.510;19.122;2022-09-13T03:16:35;9.70;;;7.10;;
39308;SDS011;26019;47.510;19.122;2022-09-13T03:37:01;12.15;;;7.82;;
39308;SDS011;26019;47.510;19.122;2022-09-13T03:47:14;10.15;;;7.43;;
39308;SDS011;26019;47.510;19.122;2022-09-13T03:57:20;10.20;;;6.70;;
39308;SDS011;26019;47.510;19.122;2022-09-13T04:07:27;11.32;;;7.22;;
39308;SDS011;26019;47.510;19.122;2022-09-13T04:17:30;11.13;;;7.43;;
39308;SDS011;26019;47.510;19.122;2022-09-13T04:27:33;10.30;;;7.03;;
39308;SDS011;26019;47.510;19.122;2022-09-13T04:37:36;10.83;;;8.03;;
39308;SDS011;26019;47.510;19.122;2022-09-13T04:57:43;17.88;;;8.15;;
39308;SDS011;26019;47.510;19.122;2022-09-13T05:07:44;12.57;;;7.93;;
39308;SDS011;26019;47.510;19.122;2022-09-13T05:17:53;9.32;;;7.22;;
39308;SDS011;26019;47.510;19.122;2022-09-13T05:27:55;10.70;;;7.05;;
39308;SDS011;26019;47.510;19.122;2022-09-13T05:38:01;14.88;;;7.43;;
39308;SDS011;26019;47.510;19.122;2022-09-13T05:48:03;11.57;;;7.40;;
39308;SDS011;26019;47.510;19.122;2022-09-13T05:58:06;18.40;;;8.07;;
39308;SDS011;26019;47.510;19.122;2022-09-13T06:08:07;12.43;;;6.90;;
39308;SDS011;26019;47.510;19.122;2022-09-13T06:18:09;9.05;;;5.47;;
39308;SDS011;26019;47.510;19.122;2022-09-13T06:28:10;13.18;;;6.05;;
39308;SDS011;26019;47.510;19.122;2022-09-13T06:38:12;15.05;;;5.60;;
39308;SDS011;26019;47.510;19.122;2022-09-13T06:48:15;6.97;;;5.40;;
39308;SDS011;26019;47.510;19.122;2022-09-13T06:58:18;13.48;;;5.40;;
39308;SDS011;26019;47.510;19.122;2022-09-13T07:08:21;10.43;;;5.65;;
39308;SDS011;26019;47.510;19.122;2022-09-13T07:18:31;7.43;;;3.90;;
39308;SDS011;26019;47.510;19.122;2022-09-13T07:28:36;10.75;;;4.78;;
39308;SDS011;26019;47.510;19.122;2022-09-13T07:38:40;10.00;;;5.05;;
39308;SDS011;26019;47.510;19.122;2022-09-13T07:48:45;8.02;;;4.07;;
39308;SDS011;26019;47.510;19.122;2022-09-13T07:58:51;6.47;;;3.05;;
39308;SDS011;26019;47.510;19.122;2022-09-13T08:08:55;8.18;;;3.40;;
39308;SDS011;26019;47.510;19.122;2022-09-13T08:18:59;6.35;;;2.85;;
39308;SDS011;26019;47.510;19.122;2022-09-13T08:39:10;5.28;;;2.55;;
39308;SDS011;26019;47.510;19.122;2022-09-13T09:10:10;7.00;;;2.53;;
39308;SDS011;26019;47.510;19.122;2022-09-13T09:20:23;2.70;;;2.00;;
39308;SDS011;26019;47.510;19.122;2022-09-13T09:30:37;8.77;;;2.47;;
39308;SDS011;26019;47.510;19.122;2022-09-13T09:40:52;8.30;;;2.20;;
39308;SDS011;26019;47.510;19.122;2022-09-13T09:50:55;5.70;;;2.05;;
39308;SDS011;26019;47.510;19.122;2022-09-13T10:01:01;5.05;;;2.38;;
39308;SDS011;26019;47.510;19.122;2022-09-13T10:11:13;2.95;;;1.65;;
39308;SDS011;26019;47.510;19.122;2022-09-13T10:21:22;4.50;;;2.13;;
39308;SDS011;26019;47.510;19.122;2022-09-13T10:31:26;3.97;;;2.17;;
39308;SDS011;26019;47.510;19.122;2022-09-13T10:41:34;4.03;;;2.42;;
39308;SDS011;26019;47.510;19.122;2022-09-13T10:51:39;5.93;;;1.92;;
39308;SDS011;26019;47.510;19.122;2022-09-13T11:42:53;5.60;;;2.53;;
39308;SDS011;26019;47.510;19.122;2022-09-13T11:53:06;5.03;;;2.25;;
39308;SDS011;26019;47.510;19.122;2022-09-13T12:03:20;6.15;;;2.20;;
39308;SDS011;26019;47.510;19.122;2022-09-13T12:13:31;3.58;;;2.30;;
39308;SDS011;26019;47.510;19.122;2022-09-13T12:23:42;5.65;;;2.67;;
39308;SDS011;26019;47.510;19.122;2022-09-13T13:04:59;2.08;;;1.88;;
39308;SDS011;26019;47.510;19.122;2022-09-13T13:25:35;3.17;;;1.55;;
39308;SDS011;26019;47.510;19.122;2022-09-13T13:35:41;4.50;;;1.58;;
39308;SDS011;26019;47.510;19.122;2022-09-13T13:46:22;3.67;;;1.60;;
39308;SDS011;26019;47.510;19.122;2022-09-13T13:56:45;3.85;;;1.50;;
39308;SDS011;26019;47.510;19.122;2022-09-13T14:27:33;3.65;;;1.42;;
39308;SDS011;26019;47.510;19.122;2022-09-13T14:37:38;6.07;;;2.60;;
39308;SDS011;26019;47.510;19.122;2022-09-13T14:47:59;2.33;;;1.70;;
39308;SDS011;26019;47.510;19.122;2022-09-13T14:58:06;5.80;;;2.58;;
39308;SDS011;26019;47.510;19.122;2022-09-13T15:18:48;2.53;;;1.50;;
39308;SDS011;26019;47.510;19.122;2022-09-13T15:29:01;3.17;;;1.55;;
39308;SDS011;26019;47.510;19.122;2022-09-13T15:49:23;5.80;;;2.20;;
39308;SDS011;26019;47.510;19.122;2022-09-13T15:59:37;2.17;;;1.98;;
39308;SDS011;26019;47.510;19.122;2022-09-13T16:09:40;11.27;;;1.98;;
39308;SDS011;26019;47.510;19.122;2022-09-13T16:19:42;8.15;;;1.90;;
39308;SDS011;26019;47.510;19.122;2022-09-13T16:29:46;1.83;;;1.73;;
39308;SDS011;26019;47.510;19.122;2022-09-13T16:39:51;3.10;;;2.17;;
39308;SDS011;26019;47.510;19.122;2022-09-13T16:49:57;9.10;;;2.85;;
39308;SDS011;26019;47.510;19.122;2022-09-13T17:00:00;23.88;;;13.73;;
39308;SDS011;26019;47.510;19.122;2022-09-13T17:10:05;24.77;;;15.40;;
39308;SDS011;26019;47.510;19.122;2022-09-13T17:20:10;14.18;;;8.98;;
39308;SDS011;26019;47.510;19.122;2022-09-13T17:30:16;7.97;;;3.40;;
39308;SDS011;26019;47.510;19.122;2022-09-13T17:40:19;11.68;;;3.40;;
39308;SDS011;26019;47.510;19.122;2022-09-13T17:50:21;10.73;;;3.75;;
39308;SDS011;26019;47.510;19.122;2022-09-13T18:00:23;9.63;;;6.22;;
39308;SDS011;26019;47.510;19.122;2022-09-13T18:10:30;9.13;;;4.07;;
39308;SDS011;26019;47.510;19.122;2022-09-13T18:20:52;9.32;;;3.53;;
39308;SDS011;26019;47.510;19.122;2022-09-13T18:51:14;10.60;;;4.60;;
39308;SDS011;26019;47.510;19.122;2022-09-13T19:01:22;12.15;;;4.35;;
39308;SDS011;26019;47.510;19.122;2022-09-13T19:11:32;13.57;;;7.55;;
39308;SDS011;26019;47.510;19.122;2022-09-13T19:21:48;11.00;;;3.83;;
39308;SDS011;26019;47.510;19.122;2022-09-13T19:31:50;11.52;;;4.63;;
39308;SDS011;26019;47.510;19.122;2022-09-13T19:41:53;11.88;;;4.68;;
39308;SDS011;26019;47.510;19.122;2022-09-13T19:51:57;15.02;;;5.35;;
39308;SDS011;26019;47.510;19.122;2022-09-13T20:02:03;9.45;;;3.67;;
39308;SDS011;26019;47.510;19.122;2022-09-13T20:12:05;6.43;;;3.20;;
39308;SDS011;26019;47.510;19.122;2022-09-13T20:22:09;7.03;;;2.95;;
39308;SDS011;26019;47.510;19.122;2022-09-13T20:32:11;8.70;;;3.05;;
39308;SDS011;26019;47.510;19.122;2022-09-13T20:42:14;6.70;;;3.70;;
39308;SDS011;26019;47.510;19.122;2022-09-13T20:52:17;9.82;;;4.13;;
39308;SDS011;26019;47.510;19.122;2022-09-13T21:12:22;10.23;;;3.53;;
39308;SDS011;26019;47.510;19.122;2022-09-13T21:22:24;13.18;;;3.90;;
39308;SDS011;26019;47.510;19.122;2022-09-13T21:32:28;11.02;;;4.63;;
39308;SDS011;26019;47.510;19.122;2022-09-13T21:42:35;15.05;;;6.53;;
39308;SDS011;26019;47.510;19.122;2022-09-13T21:52:37;10.25;;;3.65;;
39308;SDS011;26019;47.510;19.122;2022-09-13T22:02:41;10.05;;;4.50;;
39308;SDS011;26019;47.510;19.122;2022-09-13T22:12:45;9.15;;;4.00;;
39308;SDS011;26019;47.510;19.122;2022-09-13T22:22:47;9.07;;;5.40;;
39308;SDS011;26019;47.510;19.122;2022-09-13T22:32:49;8.47;;;4.83;;
39308;SDS011;26019;47.510;19.122;2022-09-13T22:42:53;8.73;;;4.07;;
39308;SDS011;26019;47.510;19.122;2022-09-13T22:52:55;11.53;;;4.13;;
39308;SDS011;26019;47.510;19.122;2022-09-13T23:02:56;5.93;;;3.47;;
39308;SDS011;26019;47.510;19.122;2022-09-13T23:12:58;11.33;;;4.70;;
39308;SDS011;26019;47.510;19.122;2022-09-13T23:23:00;5.00;;;3.63;;
39308;SDS011;26019;47.510;19.122;2022-09-13T23:33:01;6.60;;;3.60;;
39308;SDS011;26019;47.510;19.122;2022-09-13T23:43:05;9.63;;;4.93;;
39308;SDS011;26019;47.510;19.122;2022-09-13T23:53:08;8.52;;;4.35;;
